Peosta, IA

11:54 PM CST on January 21, 2017 (GMT -0600)
Dubuque Regional | | Change Station
Active Advisory: Dense Fog Advisory

Elev 1076 ft 42.40 °N, 90.71 °W | Updated 24 minutes ago

Fog
Fog
37 °F
Feels Like 34 °F
N
4
Wind Variable Wind from South

Today
High -- | Low -- °F
--% Chance of Precip.
Yesterday
High -- | Low -- °F
Precip. -- in
Pressure 29.57 in
Visibility 0.8 miles
Clouds Few 1200 ft
Overcast 2700 ft
Windchill 34 °F
Dew Point 37 °F
Humidity 100%
Rainfall 0.00 in
Snow Depth Not available.
7:25 AM 5:03 PM
Waning Crescent, 29% visible
SPECI KDBQ 220530Z AUTO 19003KT 3/4SM R36/2000V4000FT BR FEW012 OVC027 03/03 A2957 RMK AO2 T00280028
Pressure 29.57 in
Visibility 0.8 miles
Clouds Few 1200 ft
Overcast 2700 ft
Windchill 34 °F
Dew Point 37 °F
Humidity 100%
Rainfall 0.00 in
Snow Depth Not available.
7:25 AM 5:03 PM
Waning Crescent, 29% visible
SPECI KDBQ 220530Z AUTO 19003KT 3/4SM R36/2000V4000FT BR FEW012 OVC027 03/03 A2957 RMK AO2 T00280028

Get Your Daily Forecast Email!

Thanks for signing up!

Be on the lookout for a verification email in your inbox.

You'll start receiving the daily forecast at 8 AM.

×

10-Day Weather Forecast

Almanac

Astronomy

Jan. 21, 2017 Rise Set
Actual Time
Civil Twilight
Nautical Twilight
Astronomical Twilight
Moon
Length of Visible Light
Length of Day
Tomorrow will be .
, % of the Moon is Illuminated

Today's Extremes

State Highs State Lows

Community

WunderPhotos

Upload Photos

1,962,540 photos uploaded!

WunderBlog® & News

Nearby

Air Quality

  Air Quality AQ Index Pollutant
Not available.

Snow Depth

Station Depth Elevation

Earthquake Activity

City Distance Mag. Time & Date
Minimum magnitude displayed is 2.5.

Coastal Water Temperatures

Place Temperature

Stations

Nearby Weather Stations

Station Location Temp. Windchill Dew Point Humidity Wind Precip. Elev Updated Type
                   

Watches & Warnings

Dense Fog Advisory
Issued: 9:41 PM CST Jan. 21, 2017 – National Weather Service

... Dense fog advisory remains in effect until noon CST Sunday...

* visibilities... less than 1/4 mile at times.

* Timing... developing late this evening and overnight... and
lingering into Sunday morning.

* Impacts... dangerous driving conditions.

Precautionary/preparedness actions...

A dense fog advisory means visibilities will frequently be
reduced to less than one quarter mile. If driving... slow down...
use your headlights... and leave plenty of distance ahead of you.